Terminal Aerodrome Forecast
Issued by NWS

Home | Current Version | Previous Version | Graphics & Text | Print | Product List | Glossary On
Versions: 1 2 3 4 5 6 7 8 9 10 11 12 13 14 15 16 17 18 19 20 21 22 23 24 25
000
FTUS45 KGGW 181700
TAFGDV
TAF
KGDV 181720Z 1818/1918 20012KT P6SM SCT110
     FM182100 20012KT P6SM VCSH BKN110
     FM190000 24007KT P6SM VCSH BKN110
     FM191500 28013KT P6SM SCT090
      AMD LTD TO CLD VIS AND WIND=

USA.gov is the U.S. government's official web portal to all federal, state and local government web resources and services.